sensor_id;sensor_type;location;lat;lon;timestamp;P1;durP1;ratioP1;P2;durP2;ratioP2
38901;SDS011;24661;53.566;9.910;2023-01-13T00:02:24;0.97;;;0.97;;
38901;SDS011;24661;53.566;9.910;2023-01-13T00:04:50;2.00;;;1.80;;
38901;SDS011;24661;53.566;9.910;2023-01-13T00:07:15;1.50;;;1.40;;
38901;SDS011;24661;53.566;9.910;2023-01-13T00:09:41;2.27;;;1.00;;
38901;SDS011;24661;53.566;9.910;2023-01-13T00:12:06;1.10;;;1.00;;
38901;SDS011;24661;53.566;9.910;2023-01-13T00:14:33;1.73;;;1.20;;
38901;SDS011;24661;53.566;9.910;2023-01-13T00:17:00;1.03;;;0.87;;
38901;SDS011;24661;53.566;9.910;2023-01-13T00:19:26;1.63;;;0.90;;
38901;SDS011;24661;53.566;9.910;2023-01-13T00:21:51;0.97;;;0.97;;
38901;SDS011;24661;53.566;9.910;2023-01-13T00:24:17;2.33;;;1.90;;
38901;SDS011;24661;53.566;9.910;2023-01-13T00:26:43;1.77;;;1.10;;
38901;SDS011;24661;53.566;9.910;2023-01-13T00:29:08;3.03;;;1.27;;
38901;SDS011;24661;53.566;9.910;2023-01-13T00:31:34;2.70;;;0.90;;
38901;SDS011;24661;53.566;9.910;2023-01-13T00:34:00;1.73;;;0.93;;
38901;SDS011;24661;53.566;9.910;2023-01-13T00:36:26;3.77;;;0.90;;
38901;SDS011;24661;53.566;9.910;2023-01-13T00:38:52;2.07;;;0.80;;
38901;SDS011;24661;53.566;9.910;2023-01-13T00:41:19;1.90;;;0.87;;
38901;SDS011;24661;53.566;9.910;2023-01-13T00:43:46;3.13;;;1.50;;
38901;SDS011;24661;53.566;9.910;2023-01-13T00:46:14;1.50;;;0.80;;
38901;SDS011;24661;53.566;9.910;2023-01-13T00:48:41;7.37;;;0.83;;
38901;SDS011;24661;53.566;9.910;2023-01-13T00:51:09;3.33;;;1.00;;
38901;SDS011;24661;53.566;9.910;2023-01-13T00:53:39;4.43;;;0.80;;
38901;SDS011;24661;53.566;9.910;2023-01-13T00:56:11;3.67;;;1.00;;
38901;SDS011;24661;53.566;9.910;2023-01-13T00:58:42;4.63;;;1.00;;
38901;SDS011;24661;53.566;9.910;2023-01-13T01:01:11;1.97;;;0.80;;
38901;SDS011;24661;53.566;9.910;2023-01-13T01:03:42;2.43;;;1.00;;
38901;SDS011;24661;53.566;9.910;2023-01-13T01:06:09;3.13;;;1.00;;
38901;SDS011;24661;53.566;9.910;2023-01-13T01:08:37;3.77;;;0.90;;
38901;SDS011;24661;53.566;9.910;2023-01-13T01:11:05;4.13;;;0.73;;
38901;SDS011;24661;53.566;9.910;2023-01-13T01:13:32;2.17;;;0.87;;
38901;SDS011;24661;53.566;9.910;2023-01-13T01:15:59;3.77;;;1.07;;
38901;SDS011;24661;53.566;9.910;2023-01-13T01:18:28;4.37;;;1.00;;
38901;SDS011;24661;53.566;9.910;2023-01-13T01:20:54;4.70;;;0.90;;
38901;SDS011;24661;53.566;9.910;2023-01-13T01:23:24;6.23;;;1.63;;
38901;SDS011;24661;53.566;9.910;2023-01-13T01:25:49;4.73;;;1.33;;
38901;SDS011;24661;53.566;9.910;2023-01-13T01:28:16;7.50;;;0.90;;
38901;SDS011;24661;53.566;9.910;2023-01-13T01:30:43;7.93;;;1.37;;
38901;SDS011;24661;53.566;9.910;2023-01-13T01:33:09;7.73;;;1.57;;
38901;SDS011;24661;53.566;9.910;2023-01-13T01:35:37;5.03;;;1.20;;
38901;SDS011;24661;53.566;9.910;2023-01-13T01:38:03;1.93;;;1.00;;
38901;SDS011;24661;53.566;9.910;2023-01-13T01:40:29;3.60;;;1.00;;
38901;SDS011;24661;53.566;9.910;2023-01-13T01:42:55;9.43;;;1.90;;
38901;SDS011;24661;53.566;9.910;2023-01-13T01:45:39;6.70;;;1.50;;
38901;SDS011;24661;53.566;9.910;2023-01-13T01:48:05;8.47;;;2.00;;
38901;SDS011;24661;53.566;9.910;2023-01-13T01:50:31;9.53;;;2.10;;
38901;SDS011;24661;53.566;9.910;2023-01-13T01:52:58;9.77;;;1.67;;
38901;SDS011;24661;53.566;9.910;2023-01-13T01:55:31;9.83;;;2.10;;
38901;SDS011;24661;53.566;9.910;2023-01-13T01:58:02;10.07;;;2.63;;
38901;SDS011;24661;53.566;9.910;2023-01-13T02:00:34;9.53;;;1.87;;
38901;SDS011;24661;53.566;9.910;2023-01-13T02:03:00;12.23;;;1.80;;
38901;SDS011;24661;53.566;9.910;2023-01-13T02:05:28;8.60;;;1.73;;
38901;SDS011;24661;53.566;9.910;2023-01-13T02:07:53;4.37;;;1.90;;
38901;SDS011;24661;53.566;9.910;2023-01-13T02:10:22;10.00;;;1.93;;
38901;SDS011;24661;53.566;9.910;2023-01-13T02:12:52;10.93;;;1.70;;
38901;SDS011;24661;53.566;9.910;2023-01-13T02:15:20;10.93;;;2.30;;
38901;SDS011;24661;53.566;9.910;2023-01-13T02:18:01;12.17;;;3.60;;
38901;SDS011;24661;53.566;9.910;2023-01-13T02:38:48;8.37;;;2.43;;
38901;SDS011;24661;53.566;9.910;2023-01-13T02:41:15;14.33;;;3.00;;
38901;SDS011;24661;53.566;9.910;2023-01-13T02:44:07;20.20;;;2.67;;
38901;SDS011;24661;53.566;9.910;2023-01-13T02:46:47;14.87;;;3.73;;
38901;SDS011;24661;53.566;9.910;2023-01-13T02:49:32;10.77;;;2.50;;
38901;SDS011;24661;53.566;9.910;2023-01-13T02:52:11;8.17;;;2.00;;
38901;SDS011;24661;53.566;9.910;2023-01-13T02:54:57;13.07;;;2.63;;
38901;SDS011;24661;53.566;9.910;2023-01-13T02:57:34;15.97;;;2.43;;
38901;SDS011;24661;53.566;9.910;2023-01-13T03:00:03;12.67;;;2.27;;
38901;SDS011;24661;53.566;9.910;2023-01-13T03:02:33;10.27;;;2.40;;
38901;SDS011;24661;53.566;9.910;2023-01-13T03:04:59;12.27;;;2.37;;
38901;SDS011;24661;53.566;9.910;2023-01-13T03:18:00;14.43;;;2.17;;
38901;SDS011;24661;53.566;9.910;2023-01-13T03:20:32;16.93;;;3.20;;
38901;SDS011;24661;53.566;9.910;2023-01-13T03:23:19;20.70;;;2.87;;
38901;SDS011;24661;53.566;9.910;2023-01-13T03:25:54;9.57;;;2.30;;
38901;SDS011;24661;53.566;9.910;2023-01-13T03:28:27;6.77;;;2.00;;
38901;SDS011;24661;53.566;9.910;2023-01-13T03:30:57;14.10;;;2.63;;
38901;SDS011;24661;53.566;9.910;2023-01-13T03:33:28;14.73;;;2.30;;
38901;SDS011;24661;53.566;9.910;2023-01-13T03:36:01;11.30;;;2.70;;
38901;SDS011;24661;53.566;9.910;2023-01-13T03:38:32;20.43;;;3.30;;
38901;SDS011;24661;53.566;9.910;2023-01-13T03:41:04;16.87;;;3.80;;
38901;SDS011;24661;53.566;9.910;2023-01-13T03:43:38;18.90;;;3.43;;
38901;SDS011;24661;53.566;9.910;2023-01-13T03:46:27;15.43;;;3.60;;
38901;SDS011;24661;53.566;9.910;2023-01-13T03:48:58;19.23;;;3.73;;
38901;SDS011;24661;53.566;9.910;2023-01-13T03:51:29;19.43;;;3.60;;
38901;SDS011;24661;53.566;9.910;2023-01-13T03:53:58;22.90;;;4.03;;
38901;SDS011;24661;53.566;9.910;2023-01-13T03:56:32;24.50;;;3.50;;
38901;SDS011;24661;53.566;9.910;2023-01-13T03:59:16;17.37;;;3.67;;
38901;SDS011;24661;53.566;9.910;2023-01-13T04:02:00;23.80;;;3.70;;
38901;SDS011;24661;53.566;9.910;2023-01-13T04:04:33;24.03;;;5.70;;
38901;SDS011;24661;53.566;9.910;2023-01-13T04:09:54;22.47;;;3.67;;
38901;SDS011;24661;53.566;9.910;2023-01-13T04:12:30;15.90;;;3.33;;
38901;SDS011;24661;53.566;9.910;2023-01-13T04:15:21;21.97;;;4.30;;
38901;SDS011;24661;53.566;9.910;2023-01-13T04:17:49;16.60;;;3.73;;
38901;SDS011;24661;53.566;9.910;2023-01-13T04:20:17;18.00;;;3.40;;
38901;SDS011;24661;53.566;9.910;2023-01-13T04:22:43;18.07;;;4.50;;
38901;SDS011;24661;53.566;9.910;2023-01-13T04:25:09;14.90;;;3.33;;
38901;SDS011;24661;53.566;9.910;2023-01-13T04:27:35;19.33;;;3.13;;
38901;SDS011;24661;53.566;9.910;2023-01-13T04:30:01;19.93;;;4.03;;
38901;SDS011;24661;53.566;9.910;2023-01-13T04:32:28;14.43;;;3.07;;
38901;SDS011;24661;53.566;9.910;2023-01-13T04:34:53;17.03;;;4.00;;
38901;SDS011;24661;53.566;9.910;2023-01-13T04:37:19;14.07;;;3.53;;
38901;SDS011;24661;53.566;9.910;2023-01-13T04:39:45;30.97;;;5.83;;
38901;SDS011;24661;53.566;9.910;2023-01-13T04:42:10;25.33;;;4.30;;
38901;SDS011;24661;53.566;9.910;2023-01-13T04:44:36;17.37;;;3.53;;
38901;SDS011;24661;53.566;9.910;2023-01-13T04:47:03;17.47;;;3.03;;
38901;SDS011;24661;53.566;9.910;2023-01-13T04:49:29;21.67;;;4.70;;
38901;SDS011;24661;53.566;9.910;2023-01-13T04:51:55;14.63;;;3.10;;
38901;SDS011;24661;53.566;9.910;2023-01-13T04:54:21;23.70;;;3.47;;
38901;SDS011;24661;53.566;9.910;2023-01-13T04:56:46;13.53;;;3.50;;
38901;SDS011;24661;53.566;9.910;2023-01-13T04:59:12;16.37;;;4.00;;
38901;SDS011;24661;53.566;9.910;2023-01-13T05:01:38;19.20;;;3.43;;
38901;SDS011;24661;53.566;9.910;2023-01-13T05:04:04;14.63;;;2.87;;
38901;SDS011;24661;53.566;9.910;2023-01-13T05:06:31;15.47;;;2.97;;
38901;SDS011;24661;53.566;9.910;2023-01-13T05:08:58;17.17;;;3.30;;
38901;SDS011;24661;53.566;9.910;2023-01-13T05:11:27;20.27;;;4.20;;
38901;SDS011;24661;53.566;9.910;2023-01-13T05:14:11;15.77;;;3.43;;
38901;SDS011;24661;53.566;9.910;2023-01-13T05:16:55;14.93;;;3.17;;
38901;SDS011;24661;53.566;9.910;2023-01-13T05:19:31;16.37;;;2.97;;
38901;SDS011;24661;53.566;9.910;2023-01-13T05:21:59;25.80;;;3.70;;
38901;SDS011;24661;53.566;9.910;2023-01-13T05:24:44;15.53;;;3.60;;
38901;SDS011;24661;53.566;9.910;2023-01-13T05:27:28;14.97;;;5.00;;
38901;SDS011;24661;53.566;9.910;2023-01-13T05:29:54;22.70;;;4.83;;
38901;SDS011;24661;53.566;9.910;2023-01-13T05:32:20;15.37;;;3.37;;
38901;SDS011;24661;53.566;9.910;2023-01-13T05:34:47;23.03;;;4.07;;
38901;SDS011;24661;53.566;9.910;2023-01-13T05:37:13;20.07;;;5.33;;
38901;SDS011;24661;53.566;9.910;2023-01-13T05:39:39;18.70;;;3.77;;
38901;SDS011;24661;53.566;9.910;2023-01-13T05:42:24;17.47;;;3.87;;
38901;SDS011;24661;53.566;9.910;2023-01-13T05:45:08;21.00;;;3.20;;
38901;SDS011;24661;53.566;9.910;2023-01-13T05:47:34;27.47;;;4.47;;
38901;SDS011;24661;53.566;9.910;2023-01-13T05:50:00;20.83;;;4.27;;
38901;SDS011;24661;53.566;9.910;2023-01-13T05:52:27;18.10;;;3.50;;
38901;SDS011;24661;53.566;9.910;2023-01-13T05:54:53;17.43;;;4.13;;
38901;SDS011;24661;53.566;9.910;2023-01-13T05:57:18;17.50;;;3.20;;
38901;SDS011;24661;53.566;9.910;2023-01-13T05:59:44;22.37;;;3.93;;
38901;SDS011;24661;53.566;9.910;2023-01-13T06:02:09;17.90;;;4.40;;
38901;SDS011;24661;53.566;9.910;2023-01-13T06:04:35;11.77;;;2.87;;
38901;SDS011;24661;53.566;9.910;2023-01-13T06:07:01;16.90;;;3.73;;
38901;SDS011;24661;53.566;9.910;2023-01-13T06:09:26;16.43;;;4.27;;
38901;SDS011;24661;53.566;9.910;2023-01-13T06:11:52;28.00;;;5.70;;
38901;SDS011;24661;53.566;9.910;2023-01-13T06:14:17;20.60;;;3.47;;
38901;SDS011;24661;53.566;9.910;2023-01-13T06:16:43;19.27;;;4.17;;
38901;SDS011;24661;53.566;9.910;2023-01-13T06:19:09;16.97;;;4.27;;
38901;SDS011;24661;53.566;9.910;2023-01-13T06:21:37;22.37;;;3.87;;
38901;SDS011;24661;53.566;9.910;2023-01-13T06:24:07;17.37;;;3.73;;
38901;SDS011;24661;53.566;9.910;2023-01-13T06:26:39;28.33;;;3.30;;
38901;SDS011;24661;53.566;9.910;2023-01-13T06:29:05;22.70;;;5.43;;
38901;SDS011;24661;53.566;9.910;2023-01-13T06:31:34;25.37;;;5.27;;
38901;SDS011;24661;53.566;9.910;2023-01-13T06:34:04;15.90;;;4.40;;
38901;SDS011;24661;53.566;9.910;2023-01-13T06:36:38;15.83;;;3.70;;
38901;SDS011;24661;53.566;9.910;2023-01-13T06:39:07;19.97;;;4.77;;
38901;SDS011;24661;53.566;9.910;2023-01-13T06:41:35;26.63;;;4.47;;
38901;SDS011;24661;53.566;9.910;2023-01-13T06:44:20;11.77;;;3.33;;
38901;SDS011;24661;53.566;9.910;2023-01-13T06:46:48;23.30;;;3.80;;
38901;SDS011;24661;53.566;9.910;2023-01-13T06:49:18;18.00;;;3.40;;
38901;SDS011;24661;53.566;9.910;2023-01-13T06:51:43;18.07;;;3.90;;
38901;SDS011;24661;53.566;9.910;2023-01-13T06:54:10;13.73;;;3.10;;
38901;SDS011;24661;53.566;9.910;2023-01-13T06:56:36;21.93;;;3.87;;
38901;SDS011;24661;53.566;9.910;2023-01-13T06:59:01;15.93;;;3.30;;
38901;SDS011;24661;53.566;9.910;2023-01-13T07:01:27;19.10;;;3.40;;
38901;SDS011;24661;53.566;9.910;2023-01-13T07:03:54;22.70;;;5.57;;
38901;SDS011;24661;53.566;9.910;2023-01-13T07:06:19;19.83;;;5.47;;
38901;SDS011;24661;53.566;9.910;2023-01-13T07:08:45;19.17;;;3.53;;
38901;SDS011;24661;53.566;9.910;2023-01-13T07:11:10;16.57;;;3.47;;
38901;SDS011;24661;53.566;9.910;2023-01-13T07:13:36;17.07;;;4.40;;
38901;SDS011;24661;53.566;9.910;2023-01-13T07:16:20;20.17;;;4.23;;
38901;SDS011;24661;53.566;9.910;2023-01-13T07:18:48;21.57;;;4.80;;
38901;SDS011;24661;53.566;9.910;2023-01-13T07:21:14;23.93;;;5.20;;
38901;SDS011;24661;53.566;9.910;2023-01-13T07:23:44;19.10;;;3.77;;
38901;SDS011;24661;53.566;9.910;2023-01-13T07:26:13;12.83;;;3.23;;
38901;SDS011;24661;53.566;9.910;2023-01-13T07:28:39;21.87;;;4.00;;
38901;SDS011;24661;53.566;9.910;2023-01-13T07:31:11;17.37;;;3.90;;
38901;SDS011;24661;53.566;9.910;2023-01-13T07:33:39;22.77;;;5.30;;
38901;SDS011;24661;53.566;9.910;2023-01-13T07:36:04;18.97;;;3.70;;
38901;SDS011;24661;53.566;9.910;2023-01-13T07:38:31;21.17;;;4.47;;
38901;SDS011;24661;53.566;9.910;2023-01-13T07:40:57;21.17;;;5.67;;
38901;SDS011;24661;53.566;9.910;2023-01-13T07:43:43;26.43;;;4.23;;
38901;SDS011;24661;53.566;9.910;2023-01-13T07:46:09;19.07;;;3.60;;
38901;SDS011;24661;53.566;9.910;2023-01-13T07:48:35;22.70;;;4.27;;
38901;SDS011;24661;53.566;9.910;2023-01-13T07:51:04;16.07;;;3.90;;
38901;SDS011;24661;53.566;9.910;2023-01-13T07:53:32;21.00;;;4.73;;
38901;SDS011;24661;53.566;9.910;2023-01-13T07:55:58;19.30;;;4.20;;
38901;SDS011;24661;53.566;9.910;2023-01-13T07:58:25;15.33;;;3.50;;
38901;SDS011;24661;53.566;9.910;2023-01-13T08:00:51;20.10;;;4.50;;
38901;SDS011;24661;53.566;9.910;2023-01-13T08:03:17;18.53;;;4.37;;
38901;SDS011;24661;53.566;9.910;2023-01-13T08:05:43;17.93;;;3.73;;
38901;SDS011;24661;53.566;9.910;2023-01-13T08:08:09;23.40;;;4.37;;
38901;SDS011;24661;53.566;9.910;2023-01-13T08:10:35;23.37;;;4.97;;
38901;SDS011;24661;53.566;9.910;2023-01-13T08:13:22;19.83;;;3.73;;
38901;SDS011;24661;53.566;9.910;2023-01-13T08:15:48;29.60;;;5.03;;
38901;SDS011;24661;53.566;9.910;2023-01-13T08:18:16;24.40;;;4.27;;
38901;SDS011;24661;53.566;9.910;2023-01-13T08:20:46;27.20;;;5.53;;
38901;SDS011;24661;53.566;9.910;2023-01-13T08:23:13;18.97;;;3.97;;
38901;SDS011;24661;53.566;9.910;2023-01-13T08:25:39;22.87;;;5.17;;
38901;SDS011;24661;53.566;9.910;2023-01-13T08:28:05;24.90;;;5.00;;
38901;SDS011;24661;53.566;9.910;2023-01-13T08:30:31;22.80;;;3.63;;
38901;SDS011;24661;53.566;9.910;2023-01-13T08:32:56;19.57;;;3.97;;
38901;SDS011;24661;53.566;9.910;2023-01-13T08:35:22;22.63;;;4.73;;
38901;SDS011;24661;53.566;9.910;2023-01-13T08:37:48;21.70;;;5.50;;
38901;SDS011;24661;53.566;9.910;2023-01-13T08:40:15;20.00;;;3.67;;
38901;SDS011;24661;53.566;9.910;2023-01-13T08:42:41;21.63;;;3.50;;
38901;SDS011;24661;53.566;9.910;2023-01-13T08:45:07;25.23;;;4.43;;
38901;SDS011;24661;53.566;9.910;2023-01-13T08:47:34;21.97;;;4.87;;
38901;SDS011;24661;53.566;9.910;2023-01-13T08:50:00;18.53;;;3.60;;
38901;SDS011;24661;53.566;9.910;2023-01-13T08:52:25;20.43;;;4.07;;
38901;SDS011;24661;53.566;9.910;2023-01-13T08:54:52;20.30;;;3.60;;
38901;SDS011;24661;53.566;9.910;2023-01-13T08:57:18;13.97;;;3.47;;
38901;SDS011;24661;53.566;9.910;2023-01-13T08:59:44;19.47;;;3.73;;
38901;SDS011;24661;53.566;9.910;2023-01-13T09:02:17;21.00;;;4.17;;
38901;SDS011;24661;53.566;9.910;2023-01-13T09:04:44;15.83;;;3.20;;
38901;SDS011;24661;53.566;9.910;2023-01-13T09:07:10;17.40;;;3.47;;
38901;SDS011;24661;53.566;9.910;2023-01-13T09:09:37;14.73;;;3.40;;
38901;SDS011;24661;53.566;9.910;2023-01-13T09:12:03;12.47;;;3.23;;
38901;SDS011;24661;53.566;9.910;2023-01-13T09:14:47;12.83;;;3.60;;
38901;SDS011;24661;53.566;9.910;2023-01-13T09:17:13;17.23;;;2.90;;
38901;SDS011;24661;53.566;9.910;2023-01-13T09:19:39;14.03;;;3.07;;
38901;SDS011;24661;53.566;9.910;2023-01-13T09:22:05;12.60;;;2.63;;
38901;SDS011;24661;53.566;9.910;2023-01-13T09:24:31;10.77;;;2.90;;
38901;SDS011;24661;53.566;9.910;2023-01-13T09:26:56;21.23;;;3.63;;
38901;SDS011;24661;53.566;9.910;2023-01-13T09:29:22;18.43;;;4.63;;
38901;SDS011;24661;53.566;9.910;2023-01-13T09:31:48;19.40;;;3.60;;
38901;SDS011;24661;53.566;9.910;2023-01-13T09:34:15;9.73;;;2.60;;
38901;SDS011;24661;53.566;9.910;2023-01-13T09:37:03;17.53;;;2.77;;
38901;SDS011;24661;53.566;9.910;2023-01-13T09:39:30;14.10;;;2.93;;
38901;SDS011;24661;53.566;9.910;2023-01-13T09:42:00;12.77;;;3.03;;
38901;SDS011;24661;53.566;9.910;2023-01-13T09:44:55;12.93;;;2.37;;
38901;SDS011;24661;53.566;9.910;2023-01-13T09:53:06;9.10;;;2.40;;
38901;SDS011;24661;53.566;9.910;2023-01-13T09:55:38;14.93;;;2.30;;
38901;SDS011;24661;53.566;9.910;2023-01-13T09:58:13;24.60;;;3.80;;
38901;SDS011;24661;53.566;9.910;2023-01-13T10:03:25;13.17;;;2.60;;
38901;SDS011;24661;53.566;9.910;2023-01-13T10:08:28;17.37;;;2.87;;
38901;SDS011;24661;53.566;9.910;2023-01-13T10:11:00;15.80;;;2.70;;
38901;SDS011;24661;53.566;9.910;2023-01-13T10:13:51;14.10;;;2.57;;
38901;SDS011;24661;53.566;9.910;2023-01-13T10:16:25;13.77;;;3.07;;
38901;SDS011;24661;53.566;9.910;2023-01-13T10:19:23;16.00;;;2.80;;
38901;SDS011;24661;53.566;9.910;2023-01-13T10:24:57;12.63;;;2.67;;
38901;SDS011;24661;53.566;9.910;2023-01-13T10:27:34;11.63;;;2.00;;
38901;SDS011;24661;53.566;9.910;2023-01-13T10:30:10;10.93;;;3.13;;
38901;SDS011;24661;53.566;9.910;2023-01-13T10:32:36;8.63;;;1.87;;
38901;SDS011;24661;53.566;9.910;2023-01-13T10:35:02;7.93;;;2.40;;
38901;SDS011;24661;53.566;9.910;2023-01-13T10:37:29;13.07;;;2.10;;
38901;SDS011;24661;53.566;9.910;2023-01-13T10:39:56;12.27;;;2.47;;
38901;SDS011;24661;53.566;9.910;2023-01-13T10:42:25;20.33;;;3.37;;
38901;SDS011;24661;53.566;9.910;2023-01-13T10:44:52;14.67;;;3.33;;
38901;SDS011;24661;53.566;9.910;2023-01-13T10:49:58;9.53;;;2.33;;
38901;SDS011;24661;53.566;9.910;2023-01-13T10:52:31;10.30;;;2.90;;
38901;SDS011;24661;53.566;9.910;2023-01-13T10:55:01;11.80;;;3.30;;
38901;SDS011;24661;53.566;9.910;2023-01-13T10:57:27;14.63;;;2.70;;
38901;SDS011;24661;53.566;9.910;2023-01-13T10:59:53;14.23;;;2.60;;
38901;SDS011;24661;53.566;9.910;2023-01-13T11:02:29;14.00;;;2.80;;
38901;SDS011;24661;53.566;9.910;2023-01-13T11:05:15;38.00;;;4.27;;
38901;SDS011;24661;53.566;9.910;2023-01-13T11:07:46;13.87;;;3.10;;
38901;SDS011;24661;53.566;9.910;2023-01-13T11:16:03;16.40;;;2.37;;
38901;SDS011;24661;53.566;9.910;2023-01-13T11:21:21;6.47;;;2.10;;
38901;SDS011;24661;53.566;9.910;2023-01-13T11:24:37;10.43;;;2.60;;
38901;SDS011;24661;53.566;9.910;2023-01-13T11:29:40;11.30;;;3.10;;
38901;SDS011;24661;53.566;9.910;2023-01-13T11:32:12;17.07;;;3.40;;
38901;SDS011;24661;53.566;9.910;2023-01-13T11:34:41;8.33;;;1.60;;
38901;SDS011;24661;53.566;9.910;2023-01-13T11:37:14;12.13;;;2.47;;
38901;SDS011;24661;53.566;9.910;2023-01-13T11:42:39;12.23;;;2.60;;
38901;SDS011;24661;53.566;9.910;2023-01-13T11:45:29;12.97;;;2.20;;
38901;SDS011;24661;53.566;9.910;2023-01-13T11:48:11;7.90;;;2.20;;
38901;SDS011;24661;53.566;9.910;2023-01-13T11:51:42;9.20;;;2.00;;
38901;SDS011;24661;53.566;9.910;2023-01-13T11:59:56;10.43;;;1.97;;
38901;SDS011;24661;53.566;9.910;2023-01-13T12:05:41;8.13;;;1.83;;
38901;SDS011;24661;53.566;9.910;2023-01-13T12:08:16;5.90;;;2.17;;
38901;SDS011;24661;53.566;9.910;2023-01-13T12:16:30;9.00;;;2.33;;
38901;SDS011;24661;53.566;9.910;2023-01-13T12:24:34;6.37;;;1.83;;
38901;SDS011;24661;53.566;9.910;2023-01-13T12:27:29;13.50;;;2.30;;
38901;SDS011;24661;53.566;9.910;2023-01-13T12:30:26;7.37;;;2.03;;
38901;SDS011;24661;53.566;9.910;2023-01-13T12:33:14;7.97;;;2.57;;
38901;SDS011;24661;53.566;9.910;2023-01-13T12:38:23;9.40;;;2.50;;
38901;SDS011;24661;53.566;9.910;2023-01-13T12:41:05;10.90;;;2.63;;
38901;SDS011;24661;53.566;9.910;2023-01-13T12:43:38;9.67;;;1.87;;
38901;SDS011;24661;53.566;9.910;2023-01-13T12:53:51;13.17;;;2.47;;
38901;SDS011;24661;53.566;9.910;2023-01-13T12:56:19;13.67;;;2.83;;
38901;SDS011;24661;53.566;9.910;2023-01-13T13:01:48;22.67;;;3.03;;
38901;SDS011;24661;53.566;9.910;2023-01-13T13:04:45;7.87;;;2.73;;
38901;SDS011;24661;53.566;9.910;2023-01-13T13:07:17;12.37;;;2.60;;
38901;SDS011;24661;53.566;9.910;2023-01-13T13:10:33;16.00;;;3.53;;
38901;SDS011;24661;53.566;9.910;2023-01-13T13:15:25;9.20;;;2.33;;
38901;SDS011;24661;53.566;9.910;2023-01-13T13:21:04;7.97;;;2.13;;
38901;SDS011;24661;53.566;9.910;2023-01-13T13:23:37;7.70;;;1.80;;
38901;SDS011;24661;53.566;9.910;2023-01-13T13:33:46;8.40;;;2.27;;
38901;SDS011;24661;53.566;9.910;2023-01-13T13:39:21;12.43;;;2.33;;
38901;SDS011;24661;53.566;9.910;2023-01-13T13:42:24;5.77;;;1.70;;
38901;SDS011;24661;53.566;9.910;2023-01-13T13:45:15;15.80;;;3.47;;
38901;SDS011;24661;53.566;9.910;2023-01-13T13:48:24;7.20;;;1.97;;
38901;SDS011;24661;53.566;9.910;2023-01-13T13:50:53;9.53;;;2.00;;
38901;SDS011;24661;53.566;9.910;2023-01-13T13:53:26;9.57;;;2.33;;
38901;SDS011;24661;53.566;9.910;2023-01-13T13:55:57;11.53;;;2.57;;
38901;SDS011;24661;53.566;9.910;2023-01-13T13:58:25;5.20;;;2.60;;
38901;SDS011;24661;53.566;9.910;2023-01-13T14:00:53;6.10;;;2.57;;
38901;SDS011;24661;53.566;9.910;2023-01-13T14:03:24;14.63;;;2.83;;
38901;SDS011;24661;53.566;9.910;2023-01-13T14:05:54;10.37;;;3.20;;
38901;SDS011;24661;53.566;9.910;2023-01-13T14:08:21;11.63;;;2.20;;
38901;SDS011;24661;53.566;9.910;2023-01-13T14:10:48;9.50;;;2.67;;
38901;SDS011;24661;53.566;9.910;2023-01-13T14:13:17;13.93;;;2.50;;
38901;SDS011;24661;53.566;9.910;2023-01-13T14:15:46;9.33;;;2.40;;
38901;SDS011;24661;53.566;9.910;2023-01-13T14:18:17;12.17;;;3.50;;
38901;SDS011;24661;53.566;9.910;2023-01-13T14:20:57;9.97;;;2.67;;
38901;SDS011;24661;53.566;9.910;2023-01-13T14:23:30;11.73;;;2.77;;
38901;SDS011;24661;53.566;9.910;2023-01-13T14:26:06;9.87;;;2.30;;
38901;SDS011;24661;53.566;9.910;2023-01-13T14:28:34;9.27;;;2.20;;
38901;SDS011;24661;53.566;9.910;2023-01-13T14:31:02;11.40;;;2.33;;
38901;SDS011;24661;53.566;9.910;2023-01-13T14:33:43;14.40;;;2.40;;
38901;SDS011;24661;53.566;9.910;2023-01-13T14:36:14;6.63;;;2.00;;
38901;SDS011;24661;53.566;9.910;2023-01-13T14:38:46;10.83;;;2.80;;
38901;SDS011;24661;53.566;9.910;2023-01-13T14:46:44;10.80;;;2.70;;
38901;SDS011;24661;53.566;9.910;2023-01-13T14:52:04;10.27;;;2.33;;
38901;SDS011;24661;53.566;9.910;2023-01-13T14:57:22;12.37;;;3.30;;
38901;SDS011;24661;53.566;9.910;2023-01-13T15:04:57;13.93;;;2.57;;
38901;SDS011;24661;53.566;9.910;2023-01-13T15:16:16;7.37;;;1.97;;
38901;SDS011;24661;53.566;9.910;2023-01-13T15:18:45;6.87;;;2.93;;
38901;SDS011;24661;53.566;9.910;2023-01-13T15:21:12;12.40;;;2.97;;
38901;SDS011;24661;53.566;9.910;2023-01-13T15:23:39;10.77;;;1.90;;
38901;SDS011;24661;53.566;9.910;2023-01-13T15:26:13;9.03;;;2.37;;
38901;SDS011;24661;53.566;9.910;2023-01-13T15:28:44;5.57;;;1.67;;
38901;SDS011;24661;53.566;9.910;2023-01-13T15:31:10;5.30;;;1.57;;
38901;SDS011;24661;53.566;9.910;2023-01-13T15:33:36;3.97;;;1.03;;
38901;SDS011;24661;53.566;9.910;2023-01-13T15:36:01;4.47;;;1.30;;
38901;SDS011;24661;53.566;9.910;2023-01-13T15:38:27;6.80;;;0.80;;
38901;SDS011;24661;53.566;9.910;2023-01-13T15:40:53;5.53;;;1.47;;
38901;SDS011;24661;53.566;9.910;2023-01-13T15:43:19;9.80;;;1.17;;
38901;SDS011;24661;53.566;9.910;2023-01-13T15:46:09;2.83;;;1.07;;
38901;SDS011;24661;53.566;9.910;2023-01-13T15:52:21;7.67;;;1.23;;
38901;SDS011;24661;53.566;9.910;2023-01-13T15:54:47;4.27;;;0.93;;
38901;SDS011;24661;53.566;9.910;2023-01-13T15:57:30;7.67;;;1.40;;
38901;SDS011;24661;53.566;9.910;2023-01-13T16:00:02;5.03;;;0.90;;
38901;SDS011;24661;53.566;9.910;2023-01-13T16:02:32;3.57;;;1.20;;
38901;SDS011;24661;53.566;9.910;2023-01-13T16:04:58;5.00;;;1.13;;
38901;SDS011;24661;53.566;9.910;2023-01-13T16:07:24;9.07;;;1.57;;
38901;SDS011;24661;53.566;9.910;2023-01-13T16:09:50;3.10;;;1.33;;
38901;SDS011;24661;53.566;9.910;2023-01-13T16:12:16;5.73;;;1.73;;
38901;SDS011;24661;53.566;9.910;2023-01-13T16:14:41;7.90;;;1.70;;
38901;SDS011;24661;53.566;9.910;2023-01-13T16:17:20;2.53;;;1.30;;
38901;SDS011;24661;53.566;9.910;2023-01-13T16:19:48;4.10;;;2.27;;
38901;SDS011;24661;53.566;9.910;2023-01-13T16:22:15;7.40;;;1.67;;
38901;SDS011;24661;53.566;9.910;2023-01-13T16:24:41;8.97;;;1.60;;
38901;SDS011;24661;53.566;9.910;2023-01-13T16:27:14;12.23;;;3.67;;
38901;SDS011;24661;53.566;9.910;2023-01-13T16:29:45;10.17;;;1.97;;
38901;SDS011;24661;53.566;9.910;2023-01-13T16:32:12;9.33;;;1.93;;
38901;SDS011;24661;53.566;9.910;2023-01-13T16:34:38;13.83;;;3.10;;
38901;SDS011;24661;53.566;9.910;2023-01-13T16:37:05;5.53;;;1.80;;
38901;SDS011;24661;53.566;9.910;2023-01-13T16:39:45;19.67;;;2.33;;
38901;SDS011;24661;53.566;9.910;2023-01-13T16:42:11;11.47;;;2.00;;
38901;SDS011;24661;53.566;9.910;2023-01-13T16:44:37;15.50;;;2.27;;
38901;SDS011;24661;53.566;9.910;2023-01-13T16:47:04;15.20;;;3.63;;
38901;SDS011;24661;53.566;9.910;2023-01-13T16:49:31;4.77;;;1.13;;
38901;SDS011;24661;53.566;9.910;2023-01-13T16:51:58;13.93;;;2.13;;
38901;SDS011;24661;53.566;9.910;2023-01-13T16:54:24;10.93;;;2.77;;
38901;SDS011;24661;53.566;9.910;2023-01-13T16:56:49;7.30;;;1.67;;
38901;SDS011;24661;53.566;9.910;2023-01-13T16:59:15;9.57;;;1.77;;
38901;SDS011;24661;53.566;9.910;2023-01-13T17:01:41;9.97;;;2.10;;
38901;SDS011;24661;53.566;9.910;2023-01-13T17:04:15;9.07;;;1.50;;
38901;SDS011;24661;53.566;9.910;2023-01-13T17:06:51;11.40;;;1.90;;
38901;SDS011;24661;53.566;9.910;2023-01-13T17:09:21;6.07;;;1.30;;
38901;SDS011;24661;53.566;9.910;2023-01-13T17:11:48;7.63;;;2.50;;
38901;SDS011;24661;53.566;9.910;2023-01-13T17:14:14;5.37;;;1.57;;
38901;SDS011;24661;53.566;9.910;2023-01-13T17:16:39;5.63;;;1.33;;
38901;SDS011;24661;53.566;9.910;2023-01-13T17:19:05;6.80;;;1.20;;
38901;SDS011;24661;53.566;9.910;2023-01-13T17:21:32;5.73;;;1.43;;